Bancroft, Nebraska
Current Conditions -  °F | °C
As of 12:54 PM on Friday 28 Nov 2014 (Local Time) from KTQE Reporting Station
Clear Clear  
Wind Chill: 42°   Ceiling: Unl
Heat Index: 48°   Visibility: 10mi
Dew Point: 29°   Wind: 14mph
Humidity: 48%   Direction: 180°S
Pressure: 29.73"   Gusts: NA
Location:  42.01°N, 96.57°W
Report Text: KTQE 281854Z AUTO 18012KT 10SM CLR 09/M02 A2973 RMK AO2 SLP072 T00891017
Loading
Personal Weather Stations






























Interactive Weather Map New forecast layout! Learn more

10-Day Weather Forecast

Advertisements
Track Severe Weather on mobile